Flight Track Log - Related Links

Times and Time Zones

All times are in EDT time to prevent confusion due to time zone crossing. See the SWA1377 flight status page for this flight to view local times or setup timezone preferences in your user account.

Time Position Orientation Groundspeed Altitude Reporting Facility
EDT Latitude Longitude Course Direction KTS MPH feet Rate Location/Type
Sun 12:25:07 PM 42.8833 -78.8000 222° Southwest 208 239 4,000  Level Buffalo TRACON
Sun 12:26:08 PM 42.8333 -78.7833 166° South 226 260 6,800 2,976 Climbing Buffalo TRACON
Sun 12:27:10 PM 42.7711 -78.7675 169° South 259 298 10,100 3,074 Climbing Cleveland Center
Sun 12:28:09 PM 42.6875 -78.7500 171° South 269 310 13,000 3,328 Climbing Cleveland Center
Sun 12:29:09 PM 42.5975 -78.7300 171° South 304 350 16,700 3,570 Climbing Cleveland Center
Sun 12:30:10 PM 42.4886 -78.7053 170° South 345 397 20,200 2,132 Climbing Cleveland Center
Sun 12:31:10 PM 42.3861 -78.6800 170° South 368 423 21,000 403 Climbing Cleveland Center
Sun 12:32:09 PM 42.3056 -78.5956 142° Southeast 368 423 21,000 800 Level Cleveland Center
Sun 12:33:10 PM 42.2269 -78.5053 140° Southeast 363 418 22,600 1,950 Climbing Cleveland Center
Sun 12:34:09 PM 42.1522 -78.4181 139° Southeast 373 429 24,900 1,200 Climbing Cleveland Center
Sun 12:35:10 PM 42.0628 -78.3178 140° Southeast 392 451 25,000 50 Climbing Cleveland Center
Sun 12:36:10 PM 41.9753 -78.2147 139° Southeast 411 473 25,000  Level Cleveland Center
Sun 12:37:10 PM 41.8875 -78.1119 139° Southeast 419 482 25,000  Level Cleveland Center
Sun 12:38:10 PM 41.7978 -78.0122 140° Southeast 419 482 25,000  Level Cleveland Center
Sun 12:38:42 PM 41.7536 -77.9642 141° Southeast 416 479 25,000  Level New York Center
Sun 12:39:42 PM 41.6639 -77.8600 139° Southeast 416 479 25,000  Level New York Center
Sun 12:40:40 PM 41.5761 -77.7592 139° Southeast 422 486 25,000  Level New York Center
Sun 12:41:40 PM 41.4861 -77.6586 140° Southeast 428 493 25,000 -443 Level New York Center
Sun 12:42:42 PM 41.3867 -77.5431 139° Southeast 428 493 24,100 -950 Descending New York Center
Sun 12:43:40 PM 41.3003 -77.4489 141° Southeast 428 493 23,100 -966 Descending New York Center
Sun 12:44:40 PM 41.2217 -77.3639 141° Southeast 422 486 22,200 -942 Descending New York Center
Sun 12:45:41 PM 41.1411 -77.2733 140° Southeast 400 460 21,200 -1,300 Descending New York Center
Sun 12:46:40 PM 41.0647 -77.1861 139° Southeast 383 441 19,600 -1,650 Descending New York Center
Sun 12:47:41 PM 40.9881 -77.1019 140° Southeast 371 427 17,900 -1,488 Descending New York Center
Sun 12:48:41 PM 40.9147 -77.0264 142° Southeast 355 409 16,600 -1,339 Descending New York Center
Sun 12:49:42 PM 40.8361 -76.9369 139° Southeast 339 390 15,200 -793 Descending New York Center
Sun 12:50:42 PM 40.7733 -76.8628 138° Southeast 339 390 15,000 -102 Descending New York Center
Sun 12:51:40 PM 40.7028 -76.7769 137° Southeast 346 398 15,000  Level New York Center
Sun 12:52:42 PM 40.6219 -76.6853 139° Southeast 354 407 15,000  Level New York Center
Sun 12:53:42 PM 40.5514 -76.5917 135° Southeast 354 407 15,000  Level New York Center
Sun 12:54:42 PM 40.4939 -76.4886 126° Southeast 354 407 15,000  Level New York Center
Sun 12:55:40 PM 40.4364 -76.3831 126° Southeast 354 407 15,000  Level New York Center
Sun 12:56:41 PM 40.3803 -76.2911 129° Southeast 359 413 15,000  Level New York Center
Sun 12:57:42 PM 40.2850 -76.2836 177° South 322 371 15,000 -101 Level New York Center
Sun 12:59:40 PM 40.0967 -76.2931 182° South 324 373 14,700 -558 Descending New York Center
Sun 01:01:17 PM 39.9667 -76.3000 182° South 291 335 13,000 -1,025 Descending Potomac TRACON
Sun 01:02:18 PM 39.8833 -76.3000 180° South 289 333 12,000 -496 Descending Potomac TRACON
Sun 01:03:18 PM 39.8000 -76.3000 180° South 282 325 12,000 -550 Level Potomac TRACON
Sun 01:04:18 PM 39.7333 -76.3333 201° Southwest 282 325 10,900 -1,250 Descending Potomac TRACON
Sun 01:05:18 PM 39.6833 -76.4000 226° Southwest 272 313 9,500 -1,500 Descending Potomac TRACON
Sun 01:06:18 PM 39.6333 -76.4833 232° Southwest 271 312 7,900 -1,368 Descending Potomac TRACON
Sun 01:07:12 PM 39.6000 -76.5500 237° Southwest 265 305 6,900 -1,043 Descending Potomac TRACON
Sun 01:08:13 PM 39.5500 -76.6333 232° Southwest 256 295 5,900 -1,050 Descending Potomac TRACON
Sun 01:09:12 PM 39.5000 -76.6833 218° Southwest 248 285 4,800 -1,150 Descending Potomac TRACON
Sun 01:10:13 PM 39.4333 -76.7167 201° Southwest 240 276 3,600 -793 Descending Potomac TRACON
Sun 01:11:13 PM 39.3833 -76.7667 218° Southwest 233 268 3,200 -300 Descending Potomac TRACON
Sun 01:12:13 PM 39.3167 -76.8000 201° Southwest 237 273 3,000 -350 Descending Potomac TRACON
Sun 01:13:13 PM 39.2667 -76.8167 194° South 225 259 2,500 -365 Descending Potomac TRACON
Sun 01:14:08 PM 39.2167 -76.8167 180° South 178 205 2,300 -522 Descending Potomac TRACON
Sun 01:15:08 PM 39.1833 -76.7833 142° Southeast 147 169 1,500 -750 Descending Potomac TRACON
Sun 01:16:08 PM 39.1833 -76.7333 90° East 136 157 800 -700 Descending Potomac TRACON
Sun 01:18:00 PM 39.1667 -76.6667 270° West  Level FlightAware Approximate
Sun 01:25:00 PM 39.1754 -76.6683 270° West  Level Estimated

Login

Don't have an account? Register now (free) for customized features, flight alerts, and more!